createdAt,value
2023-03-06T00:00:58.210Z,11.40
2023-03-06T00:01:58.197Z,11.90
2023-03-06T00:02:58.090Z,12.00
2023-03-06T00:03:58.215Z,11.20
2023-03-06T00:04:58.165Z,11.70
2023-03-06T00:05:58.163Z,10.90
2023-03-06T00:06:58.063Z,11.70
2023-03-06T00:07:58.069Z,11.10
2023-03-06T00:08:58.247Z,11.90
2023-03-06T00:09:58.311Z,11.60
2023-03-06T00:10:58.281Z,9.70
2023-03-06T00:12:00.393Z,10.60
2023-03-06T00:12:58.515Z,10.70
2023-03-06T00:13:58.264Z,9.60
2023-03-06T00:14:58.831Z,9.00
2023-03-06T00:16:01.512Z,8.80
2023-03-06T00:16:57.949Z,9.20
2023-03-06T00:17:57.950Z,8.80
2023-03-06T00:18:57.984Z,8.10
2023-03-06T00:19:57.963Z,7.70
2023-03-06T00:20:58.250Z,7.20
2023-03-06T00:21:57.880Z,6.90
2023-03-06T00:22:59.176Z,5.50
2023-03-06T00:23:58.083Z,6.00
2023-03-06T00:24:57.862Z,5.20
2023-03-06T00:25:57.832Z,5.60
2023-03-06T00:26:58.650Z,5.30
2023-03-06T00:27:57.834Z,6.40
2023-03-06T00:28:58.721Z,7.20
2023-03-06T00:30:00.452Z,7.70
2023-03-06T00:30:57.776Z,7.30
2023-03-06T00:31:57.799Z,7.40
2023-03-06T00:32:58.126Z,8.00
2023-03-06T00:33:57.709Z,9.10
2023-03-06T00:34:57.744Z,8.40
2023-03-06T00:35:58.050Z,8.80
2023-03-06T00:36:57.667Z,8.60
2023-03-06T00:37:57.660Z,9.00
2023-03-06T00:38:57.704Z,8.70
2023-03-06T00:39:57.809Z,9.80
2023-03-06T00:40:57.798Z,9.40
2023-03-06T00:41:58.248Z,10.10
2023-03-06T00:42:57.647Z,9.50
2023-03-06T00:43:57.695Z,9.80
2023-03-06T00:44:57.607Z,9.80
2023-03-06T00:45:57.584Z,9.50
2023-03-06T00:46:57.806Z,9.60
2023-03-06T00:47:57.597Z,9.50
2023-03-06T00:48:57.681Z,9.60
2023-03-06T00:49:57.549Z,9.40
2023-03-06T00:50:58.178Z,10.10
2023-03-06T00:51:57.662Z,11.10
2023-03-06T00:52:57.728Z,10.20
2023-03-06T00:53:57.728Z,10.50
2023-03-06T00:54:57.602Z,10.70
2023-03-06T00:55:57.994Z,10.10
2023-03-06T00:56:58.053Z,11.40
2023-03-06T00:57:57.854Z,11.20
2023-03-06T00:58:58.777Z,11.30
2023-03-06T00:59:58.524Z,10.70
2023-03-06T01:00:57.676Z,10.40
2023-03-06T01:01:57.417Z,9.80
2023-03-06T01:03:03.364Z,8.30
2023-03-06T01:03:57.300Z,9.10
2023-03-06T01:04:57.326Z,8.70
2023-03-06T01:05:57.307Z,9.40
2023-03-06T01:06:57.364Z,9.20
2023-03-06T01:07:57.265Z,9.00
2023-03-06T01:08:57.289Z,8.30
2023-03-06T01:09:57.312Z,8.20
2023-03-06T01:10:57.239Z,8.40
2023-03-06T01:11:57.217Z,8.00
2023-03-06T01:12:57.293Z,8.90
2023-03-06T01:13:57.194Z,8.00
2023-03-06T01:14:57.177Z,8.60
2023-03-06T01:15:57.217Z,8.20
2023-03-06T01:16:57.171Z,8.80
2023-03-06T01:17:57.136Z,8.70
2023-03-06T01:18:57.194Z,9.10
2023-03-06T01:19:57.121Z,9.60
2023-03-06T01:20:57.161Z,9.20
2023-03-06T01:21:57.094Z,8.90
2023-03-06T01:22:57.141Z,8.50
2023-03-06T01:23:57.077Z,9.50
2023-03-06T01:24:57.118Z,9.60
2023-03-06T01:25:57.031Z,8.80
2023-03-06T01:26:57.027Z,8.50
2023-03-06T01:27:57.006Z,9.60
2023-03-06T01:28:57.006Z,8.90
2023-03-06T01:29:57.049Z,9.20
2023-03-06T01:30:56.981Z,9.50
2023-03-06T01:31:57.003Z,9.70
2023-03-06T01:32:56.943Z,9.60
2023-03-06T01:33:56.948Z,10.80
2023-03-06T01:34:56.925Z,9.50
2023-03-06T01:35:56.936Z,10.60
2023-03-06T01:36:56.911Z,10.80
2023-03-06T01:37:56.922Z,11.10
2023-03-06T01:38:56.931Z,10.10
2023-03-06T01:39:56.866Z,11.20
2023-03-06T01:40:56.853Z,11.50
2023-03-06T01:41:56.892Z,11.80
2023-03-06T01:42:56.820Z,11.70
2023-03-06T01:43:56.855Z,12.00
2023-03-06T01:44:56.801Z,11.70
2023-03-06T01:45:56.810Z,13.50
2023-03-06T01:46:56.784Z,11.60
2023-03-06T01:47:56.791Z,12.10
2023-03-06T01:48:56.737Z,12.60
2023-03-06T01:49:56.748Z,13.20
2023-03-06T01:50:56.770Z,13.20
2023-03-06T01:51:56.707Z,12.90
2023-03-06T01:52:56.762Z,12.40
2023-03-06T01:53:56.729Z,13.60
2023-03-06T01:54:56.655Z,13.40
2023-03-06T01:55:56.653Z,13.60
2023-03-06T01:56:56.661Z,13.20
2023-03-06T01:57:56.626Z,14.10
2023-03-06T01:58:56.693Z,13.50
2023-03-06T01:59:56.671Z,13.60
2023-03-06T02:00:56.600Z,14.00
2023-03-06T02:01:56.704Z,14.50
2023-03-06T02:02:56.558Z,15.80
2023-03-06T02:03:56.570Z,15.20
2023-03-06T02:04:56.581Z,14.80
2023-03-06T02:05:56.564Z,14.80
2023-03-06T02:06:56.509Z,14.00
2023-03-06T02:07:56.521Z,14.50
2023-03-06T02:08:56.509Z,14.40
2023-03-06T02:09:56.500Z,14.40
2023-03-06T02:10:56.491Z,15.20
2023-03-06T02:11:56.474Z,14.50
2023-03-06T02:12:56.444Z,14.60
2023-03-06T02:13:56.454Z,14.90
2023-03-06T02:14:56.399Z,14.70
2023-03-06T02:15:56.410Z,14.50
2023-03-06T02:16:56.428Z,14.50
2023-03-06T02:17:56.440Z,15.10
2023-03-06T02:18:56.379Z,14.80
2023-03-06T02:19:56.388Z,15.00
2023-03-06T02:20:56.358Z,14.80
2023-03-06T02:21:56.342Z,15.40
2023-03-06T02:22:56.324Z,13.90
2023-03-06T02:23:56.388Z,15.20
2023-03-06T02:24:56.358Z,13.30
2023-03-06T02:25:56.324Z,13.90
2023-03-06T02:26:56.387Z,13.30
2023-03-06T02:27:56.273Z,14.30
2023-03-06T02:28:56.262Z,13.40
2023-03-06T02:29:56.235Z,13.60
2023-03-06T02:30:56.291Z,13.10
2023-03-06T02:31:56.259Z,13.30
2023-03-06T02:32:56.208Z,12.20
2023-03-06T02:33:56.249Z,12.70
2023-03-06T02:34:56.239Z,12.90
2023-03-06T02:35:56.238Z,12.20
2023-03-06T02:36:56.158Z,12.10
2023-03-06T02:37:56.133Z,11.00
2023-03-06T02:38:56.093Z,11.60
2023-03-06T02:39:56.116Z,11.40
2023-03-06T02:40:56.094Z,10.30
2023-03-06T02:41:56.088Z,10.60
2023-03-06T02:42:56.066Z,9.70
2023-03-06T02:43:56.039Z,11.00
2023-03-06T02:44:56.105Z,10.60
2023-03-06T02:45:56.038Z,9.80
2023-03-06T02:46:56.020Z,10.00
2023-03-06T02:47:56.005Z,10.40
2023-03-06T02:48:55.990Z,9.60
2023-03-06T02:49:55.983Z,9.40
2023-03-06T02:50:55.950Z,9.80
2023-03-06T02:51:55.986Z,9.80
2023-03-06T02:52:55.921Z,9.90
2023-03-06T02:53:55.928Z,9.40
2023-03-06T02:54:55.899Z,9.90
2023-03-06T02:55:55.878Z,9.40
2023-03-06T02:56:55.914Z,9.60
2023-03-06T02:57:55.859Z,9.50
2023-03-06T02:58:55.892Z,9.30
2023-03-06T02:59:55.825Z,9.40
2023-03-06T03:00:55.882Z,8.60
2023-03-06T03:01:55.835Z,9.20
2023-03-06T03:02:55.868Z,9.20
2023-03-06T03:03:55.780Z,7.20
2023-03-06T03:04:55.819Z,8.20
2023-03-06T03:05:55.775Z,8.30
2023-03-06T03:06:55.745Z,8.00
2023-03-06T03:07:55.775Z,8.30
2023-03-06T03:08:55.704Z,7.00
2023-03-06T03:09:55.726Z,7.80
2023-03-06T03:10:55.700Z,7.30
2023-03-06T03:11:55.707Z,6.20
2023-03-06T03:12:55.751Z,6.50
2023-03-06T03:13:55.680Z,6.90
2023-03-06T03:14:55.677Z,6.30
2023-03-06T03:15:55.702Z,6.10
2023-03-06T03:16:55.609Z,6.90
2023-03-06T03:17:55.629Z,6.00
2023-03-06T03:18:55.631Z,5.70
2023-03-06T03:19:55.594Z,6.40
2023-03-06T03:20:55.562Z,5.80
2023-03-06T03:21:55.588Z,6.20
2023-03-06T03:22:55.614Z,5.90
2023-03-06T03:23:55.574Z,5.50
2023-03-06T03:24:55.558Z,5.80
2023-03-06T03:25:55.504Z,6.30
2023-03-06T03:26:55.523Z,5.30
2023-03-06T03:27:55.482Z,4.80
2023-03-06T03:28:55.503Z,5.90
2023-03-06T03:29:55.487Z,5.50
2023-03-06T03:30:55.488Z,5.30
2023-03-06T03:31:55.557Z,5.20
2023-03-06T03:32:55.434Z,5.10
2023-03-06T03:33:55.441Z,4.50
2023-03-06T03:34:55.388Z,5.30
2023-03-06T03:35:55.468Z,5.10
2023-03-06T03:36:55.383Z,5.10
2023-03-06T03:37:55.415Z,5.10
2023-03-06T03:38:55.364Z,4.90
2023-03-06T03:39:55.373Z,5.10
2023-03-06T03:40:55.361Z,4.90
2023-03-06T03:41:55.388Z,4.70
2023-03-06T03:42:55.284Z,4.50
2023-03-06T03:43:55.316Z,4.50
2023-03-06T03:44:55.289Z,4.80
2023-03-06T03:45:55.276Z,4.60
2023-03-06T03:46:55.304Z,4.60
2023-03-06T03:47:55.266Z,4.20
2023-03-06T03:48:55.229Z,4.90
2023-03-06T03:49:55.210Z,4.60
2023-03-06T03:50:55.181Z,4.50
2023-03-06T03:51:55.219Z,3.70
2023-03-06T03:52:55.199Z,4.40
2023-03-06T03:53:55.194Z,4.80
2023-03-06T03:54:55.171Z,4.40
2023-03-06T03:55:55.139Z,4.20
2023-03-06T03:56:55.120Z,4.40
2023-03-06T03:57:55.118Z,4.40
2023-03-06T03:58:55.112Z,3.80
2023-03-06T03:59:55.107Z,3.90
2023-03-06T04:00:55.059Z,4.10
2023-03-06T04:01:55.128Z,4.20
2023-03-06T04:02:55.122Z,3.90
2023-03-06T04:03:55.092Z,3.80
2023-03-06T04:04:55.135Z,4.10
2023-03-06T04:05:55.049Z,3.60
2023-03-06T04:06:55.116Z,3.50
2023-03-06T04:07:55.078Z,4.00
2023-03-06T04:08:55.014Z,4.20
2023-03-06T04:09:54.988Z,4.30
2023-03-06T04:10:54.978Z,3.40
2023-03-06T04:11:55.057Z,4.00
2023-03-06T04:12:54.916Z,3.90
2023-03-06T04:13:54.946Z,4.30
2023-03-06T04:14:54.917Z,3.70
2023-03-06T04:15:54.979Z,2.30
2023-03-06T04:16:54.864Z,3.60
2023-03-06T04:17:54.931Z,3.20
2023-03-06T04:18:54.952Z,2.90
2023-03-06T04:19:54.874Z,3.10
2023-03-06T04:20:54.810Z,3.00
2023-03-06T04:21:54.864Z,4.00
2023-03-06T04:22:54.775Z,3.20
2023-03-06T04:23:54.778Z,2.80
2023-03-06T04:24:54.775Z,3.40
2023-03-06T04:25:54.827Z,2.70
2023-03-06T04:26:54.813Z,3.10
2023-03-06T04:27:54.760Z,3.20
2023-03-06T04:28:54.749Z,3.40
2023-03-06T04:29:54.744Z,3.70
2023-03-06T04:30:54.701Z,2.90
2023-03-06T04:31:54.742Z,3.50
2023-03-06T04:32:54.692Z,3.10
2023-03-06T04:33:54.704Z,3.80
2023-03-06T04:34:54.638Z,3.90
2023-03-06T04:35:54.725Z,3.90
2023-03-06T04:36:54.660Z,3.20
2023-03-06T04:37:54.618Z,3.30
2023-03-06T04:38:54.696Z,3.90
2023-03-06T04:39:54.686Z,3.50
2023-03-06T04:40:54.544Z,4.00
2023-03-06T04:41:54.591Z,3.80
2023-03-06T04:42:54.535Z,2.90
2023-03-06T04:43:54.592Z,4.00
2023-03-06T04:44:54.615Z,3.70
2023-03-06T04:45:54.591Z,4.40
2023-03-06T04:46:54.615Z,3.70
2023-03-06T04:47:54.556Z,3.70
2023-03-06T04:48:54.512Z,3.00
2023-03-06T04:49:54.469Z,3.40
2023-03-06T04:50:54.433Z,2.70
2023-03-06T04:51:54.428Z,2.80
2023-03-06T04:52:54.528Z,2.30
2023-03-06T04:53:54.423Z,2.70
2023-03-06T04:54:54.400Z,2.50
2023-03-06T04:55:54.467Z,1.90
2023-03-06T04:56:54.425Z,2.30
2023-03-06T04:57:54.428Z,2.30
2023-03-06T04:58:54.333Z,2.20
2023-03-06T04:59:54.392Z,1.80
2023-03-06T05:00:54.335Z,1.80
2023-03-06T05:01:54.419Z,1.50
2023-03-06T05:02:54.305Z,1.40
2023-03-06T05:03:54.375Z,1.50
2023-03-06T05:04:54.280Z,1.70
2023-03-06T05:05:54.319Z,1.70
2023-03-06T05:06:54.235Z,1.70
2023-03-06T05:07:54.316Z,1.50
2023-03-06T05:08:54.245Z,1.60
2023-03-06T05:09:54.258Z,1.50
2023-03-06T05:10:54.274Z,1.60
2023-03-06T05:11:54.264Z,1.40
2023-03-06T05:12:54.184Z,1.30
2023-03-06T05:13:54.278Z,1.50
2023-03-06T05:14:54.166Z,1.30
2023-03-06T05:15:54.246Z,1.40
2023-03-06T05:16:54.147Z,1.50
2023-03-06T05:17:54.103Z,1.60
2023-03-06T05:18:54.083Z,1.20
2023-03-06T05:19:54.153Z,1.40
2023-03-06T05:20:54.054Z,1.40
2023-03-06T05:21:54.069Z,1.20
2023-03-06T05:22:54.115Z,1.60
2023-03-06T05:23:54.060Z,1.20
2023-03-06T05:24:54.039Z,1.20
2023-03-06T05:25:54.030Z,1.80
2023-03-06T05:26:54.014Z,1.40
2023-03-06T05:27:53.980Z,1.90
2023-03-06T05:28:53.994Z,1.40
2023-03-06T05:29:53.955Z,1.40
2023-03-06T05:30:54.007Z,1.30
2023-03-06T05:31:54.024Z,1.50
2023-03-06T05:32:53.968Z,1.30
2023-03-06T05:33:53.881Z,1.80
2023-03-06T05:34:53.926Z,1.50
2023-03-06T05:35:53.937Z,1.40
2023-03-06T05:36:53.899Z,1.50
2023-03-06T05:37:53.831Z,1.40
2023-03-06T05:38:53.800Z,1.30
2023-03-06T05:39:53.841Z,1.40
2023-03-06T05:40:53.868Z,1.30
2023-03-06T05:41:53.791Z,1.40
2023-03-06T05:42:53.780Z,1.60
2023-03-06T05:43:53.829Z,1.40
2023-03-06T05:44:53.752Z,1.60
2023-03-06T05:45:53.797Z,1.40
2023-03-06T05:46:53.767Z,1.70
2023-03-06T05:47:53.743Z,1.50
2023-03-06T05:48:53.745Z,1.70
2023-03-06T05:49:53.765Z,1.50
2023-03-06T05:50:53.684Z,1.70
2023-03-06T05:51:53.646Z,2.00
2023-03-06T05:52:53.647Z,1.70
2023-03-06T05:53:53.682Z,1.60
2023-03-06T05:54:53.643Z,2.00
2023-03-06T05:55:53.668Z,1.60
2023-03-06T05:56:53.642Z,1.80
2023-03-06T05:57:53.654Z,1.90
2023-03-06T05:58:53.602Z,1.90
2023-03-06T05:59:53.610Z,2.30
2023-03-06T06:00:53.542Z,2.30
2023-03-06T06:01:53.622Z,2.10
2023-03-06T06:02:53.553Z,2.20
2023-03-06T06:03:53.525Z,1.80
2023-03-06T06:04:53.517Z,2.10
2023-03-06T06:05:53.517Z,2.00
2023-03-06T06:06:53.480Z,1.60
2023-03-06T06:07:53.509Z,2.20
2023-03-06T06:08:53.467Z,2.20
2023-03-06T06:09:53.552Z,1.90
2023-03-06T06:10:53.635Z,2.10
2023-03-06T06:11:53.489Z,2.40
2023-03-06T06:12:53.512Z,2.30
2023-03-06T06:13:53.360Z,2.20
2023-03-06T06:14:53.520Z,2.30
2023-03-06T06:15:53.476Z,2.10
2023-03-06T06:16:53.395Z,2.20
2023-03-06T06:17:53.315Z,2.30
2023-03-06T06:18:53.393Z,2.40
2023-03-06T06:19:53.377Z,2.20
2023-03-06T06:20:55.626Z,2.90
2023-03-06T06:21:53.348Z,3.10
2023-03-06T06:22:53.301Z,2.70
2023-03-06T06:23:53.281Z,3.20
2023-03-06T06:24:53.309Z,2.50
2023-03-06T06:25:53.261Z,2.60
2023-03-06T06:26:53.212Z,2.00
2023-03-06T06:27:53.194Z,2.30
2023-03-06T06:28:53.209Z,2.10
2023-03-06T06:29:53.169Z,2.00
2023-03-06T06:30:53.233Z,2.30
2023-03-06T06:31:53.164Z,1.60
2023-03-06T06:32:53.265Z,2.20
2023-03-06T06:33:53.168Z,2.10
2023-03-06T06:34:53.207Z,1.70
2023-03-06T06:35:53.318Z,2.00
2023-03-06T06:36:53.736Z,2.00
2023-03-06T06:37:53.157Z,1.80
2023-03-06T06:38:53.117Z,1.90
2023-03-06T06:39:53.065Z,2.10
2023-03-06T06:41:26.882Z,2.00
2023-03-06T06:42:05.892Z,2.10
2023-03-06T06:42:53.025Z,2.40
2023-03-06T06:43:53.014Z,2.20
2023-03-06T06:44:53.026Z,1.90
2023-03-06T06:45:55.758Z,2.10
2023-03-06T06:47:53.053Z,2.50
2023-03-06T06:48:52.958Z,2.60
2023-03-06T06:49:53.034Z,2.70
2023-03-06T06:50:52.931Z,2.50
2023-03-06T06:51:52.939Z,2.80
2023-03-06T06:52:52.950Z,3.00
2023-03-06T06:53:52.896Z,3.00
2023-03-06T06:54:52.853Z,3.10
2023-03-06T06:55:52.835Z,3.60
2023-03-06T06:56:52.807Z,3.60
2023-03-06T06:57:52.814Z,3.50
2023-03-06T06:58:52.947Z,3.90
2023-03-06T06:59:54.145Z,3.70
2023-03-06T07:00:52.755Z,3.60
2023-03-06T07:01:52.908Z,3.50
2023-03-06T07:02:52.783Z,3.80
2023-03-06T07:03:52.848Z,4.00
2023-03-06T07:05:03.577Z,4.10
2023-03-06T07:05:52.749Z,4.10
2023-03-06T07:06:52.723Z,3.90
2023-03-06T07:07:52.750Z,3.90
2023-03-06T07:08:52.704Z,3.30
2023-03-06T07:09:52.692Z,4.20
2023-03-06T07:10:52.667Z,4.00
2023-03-06T07:11:52.705Z,4.20
2023-03-06T07:12:52.627Z,4.00
2023-03-06T07:13:52.652Z,4.20
2023-03-06T07:14:52.683Z,4.00
2023-03-06T07:15:52.744Z,4.10
2023-03-06T07:16:52.676Z,4.10
2023-03-06T07:17:52.578Z,4.30
2023-03-06T07:18:52.607Z,4.20
2023-03-06T07:19:52.536Z,4.10
2023-03-06T07:20:52.563Z,3.90
2023-03-06T07:21:52.522Z,4.10
2023-03-06T07:22:52.593Z,3.80
2023-03-06T07:23:52.482Z,4.40
2023-03-06T07:24:52.465Z,4.00
2023-03-06T07:25:52.468Z,4.40
2023-03-06T07:26:52.609Z,4.10
2023-03-06T07:27:53.943Z,4.40
2023-03-06T07:28:53.094Z,4.20
2023-03-06T07:29:52.409Z,4.20
2023-03-06T07:30:52.466Z,4.70
2023-03-06T07:31:52.418Z,3.70
2023-03-06T07:32:52.426Z,4.40
2023-03-06T07:33:52.380Z,4.30
2023-03-06T07:34:52.375Z,3.80
2023-03-06T07:35:52.457Z,4.00
2023-03-06T07:36:52.315Z,3.80
2023-03-06T07:37:52.439Z,3.90
2023-03-06T07:38:52.304Z,4.40
2023-03-06T07:39:52.282Z,3.70
2023-03-06T07:40:52.290Z,4.20
2023-03-06T07:41:52.371Z,8.10
2023-03-06T07:42:52.294Z,4.10
2023-03-06T07:43:52.234Z,3.60
2023-03-06T07:44:52.361Z,3.00
2023-03-06T07:45:52.203Z,3.40
2023-03-06T07:46:52.299Z,3.00
2023-03-06T07:47:52.223Z,2.80
2023-03-06T07:48:52.166Z,2.30
2023-03-06T07:49:52.146Z,2.30
2023-03-06T07:50:52.138Z,2.50
2023-03-06T07:51:52.203Z,2.50
2023-03-06T07:52:52.158Z,2.10
2023-03-06T07:53:52.133Z,2.10
2023-03-06T07:54:52.112Z,1.90
2023-03-06T07:55:52.073Z,2.00
2023-03-06T07:56:52.093Z,2.00
2023-03-06T07:57:52.070Z,1.90
2023-03-06T07:58:52.033Z,2.30
2023-03-06T07:59:52.039Z,1.80
2023-03-06T08:00:52.060Z,2.00
2023-03-06T08:01:52.106Z,2.10
2023-03-06T08:02:52.069Z,1.90
2023-03-06T08:03:52.020Z,2.10
2023-03-06T08:04:52.030Z,1.90
2023-03-06T08:05:51.926Z,2.40
2023-03-06T08:06:51.952Z,2.00
2023-03-06T08:07:52.017Z,1.70
2023-03-06T08:08:51.901Z,2.10
2023-03-06T08:09:51.989Z,2.40
2023-03-06T08:10:51.883Z,2.20
2023-03-06T08:11:51.926Z,1.90
2023-03-06T08:12:51.835Z,3.00
2023-03-06T08:13:51.871Z,2.30
2023-03-06T08:14:51.866Z,2.40
2023-03-06T08:15:51.861Z,2.40
2023-03-06T08:16:51.794Z,1.80
2023-03-06T08:17:51.798Z,2.00
2023-03-06T08:18:51.836Z,2.00
2023-03-06T08:19:51.797Z,2.00
2023-03-06T08:20:51.808Z,2.10
2023-03-06T08:21:51.783Z,2.30
2023-03-06T08:22:51.714Z,1.70
2023-03-06T08:23:51.723Z,1.60
2023-03-06T08:24:51.684Z,1.60
2023-03-06T08:25:51.682Z,1.90
2023-03-06T08:26:51.711Z,2.20
2023-03-06T08:27:51.640Z,1.90
2023-03-06T08:28:51.629Z,1.90
2023-03-06T08:29:51.612Z,2.00
2023-03-06T08:30:51.609Z,2.10
2023-03-06T08:31:51.664Z,1.90
2023-03-06T08:32:51.637Z,1.50
2023-03-06T08:33:51.591Z,1.60
2023-03-06T08:34:51.622Z,2.50
2023-03-06T08:35:51.627Z,2.30
2023-03-06T08:36:51.566Z,2.20
2023-03-06T08:37:51.537Z,1.80
2023-03-06T08:38:51.521Z,2.30
2023-03-06T08:39:51.521Z,1.70
2023-03-06T08:40:51.490Z,2.30
2023-03-06T08:41:51.515Z,1.60
2023-03-06T08:42:51.460Z,2.00
2023-03-06T08:43:51.534Z,2.20
2023-03-06T08:44:51.541Z,2.20
2023-03-06T08:45:51.536Z,2.90
2023-03-06T08:46:51.415Z,2.10
2023-03-06T08:47:51.458Z,1.90
2023-03-06T08:48:51.382Z,1.80
2023-03-06T08:49:51.475Z,2.50
2023-03-06T08:50:51.443Z,2.40
2023-03-06T08:51:51.318Z,2.00
2023-03-06T08:52:51.377Z,2.20
2023-03-06T08:53:51.486Z,2.60
2023-03-06T08:54:51.351Z,2.10
2023-03-06T08:55:51.324Z,1.90
2023-03-06T08:56:51.288Z,1.80
2023-03-06T08:57:51.350Z,2.30
2023-03-06T08:58:51.433Z,1.90
2023-03-06T08:59:51.304Z,2.20
2023-03-06T09:00:51.377Z,2.20
2023-03-06T09:01:51.249Z,2.30
2023-03-06T09:02:51.341Z,2.10
2023-03-06T09:03:51.313Z,2.50
2023-03-06T09:04:51.284Z,2.50
2023-03-06T09:05:51.153Z,2.10
2023-03-06T09:06:51.274Z,2.10
2023-03-06T09:07:51.212Z,1.70
2023-03-06T09:08:51.230Z,2.10
2023-03-06T09:09:51.126Z,2.10
2023-03-06T09:10:51.203Z,2.10
2023-03-06T09:11:51.077Z,2.10
2023-03-06T09:12:53.754Z,2.30
2023-03-06T09:13:51.084Z,2.30
2023-03-06T09:14:51.129Z,1.80
2023-03-06T09:15:51.147Z,2.30
2023-03-06T09:16:51.089Z,2.10
2023-03-06T09:17:51.097Z,2.20
2023-03-06T09:18:51.009Z,2.10
2023-03-06T09:19:51.009Z,2.40
2023-03-06T09:20:51.096Z,1.90
2023-03-06T09:21:51.075Z,2.10
2023-03-06T09:22:51.021Z,2.30
2023-03-06T09:23:51.051Z,1.80
2023-03-06T09:24:50.971Z,2.00
2023-03-06T09:25:50.959Z,2.70
2023-03-06T09:26:51.726Z,2.40
2023-03-06T09:28:01.931Z,2.90
2023-03-06T09:28:50.973Z,2.60
2023-03-06T09:29:51.035Z,2.20
2023-03-06T09:30:50.932Z,2.60
2023-03-06T09:31:50.946Z,2.90
2023-03-06T09:32:50.907Z,2.30
2023-03-06T09:33:50.969Z,2.50
2023-03-06T09:34:50.800Z,2.20
2023-03-06T09:35:50.945Z,2.20
2023-03-06T09:36:56.498Z,2.70
2023-03-06T09:37:50.918Z,2.60
2023-03-06T09:38:50.744Z,2.20
2023-03-06T09:39:50.805Z,2.40
2023-03-06T09:40:50.765Z,2.50
2023-03-06T09:41:50.842Z,2.50
2023-03-06T09:42:50.724Z,2.40
2023-03-06T09:43:50.825Z,3.10
2023-03-06T09:44:50.652Z,2.30
2023-03-06T09:45:50.705Z,2.40
2023-03-06T09:46:50.666Z,2.50
2023-03-06T09:47:50.626Z,1.80
2023-03-06T09:48:50.633Z,1.70
2023-03-06T09:49:50.597Z,1.80
2023-03-06T09:50:50.642Z,1.70
2023-03-06T09:51:50.582Z,1.50
2023-03-06T09:52:50.565Z,1.90
2023-03-06T09:53:50.510Z,2.30
2023-03-06T09:54:50.513Z,2.60
2023-03-06T09:55:50.495Z,2.90
2023-03-06T09:56:50.533Z,3.30
2023-03-06T09:57:51.260Z,3.00
2023-03-06T09:58:50.459Z,2.40
2023-03-06T09:59:50.457Z,2.70
2023-03-06T10:00:50.479Z,2.70
2023-03-06T10:01:50.513Z,2.50
2023-03-06T10:02:50.546Z,2.50
2023-03-06T10:03:50.525Z,2.50
2023-03-06T10:04:50.456Z,1.80
2023-03-06T10:05:50.361Z,2.30
2023-03-06T10:06:50.379Z,2.10
2023-03-06T10:07:50.389Z,2.00
2023-03-06T10:08:50.442Z,1.50
2023-03-06T10:09:50.336Z,1.20
2023-03-06T10:10:50.322Z,1.60
2023-03-06T10:11:50.315Z,1.80
2023-03-06T10:12:50.272Z,1.70
2023-03-06T10:13:50.383Z,1.90
2023-03-06T10:14:50.270Z,2.00
2023-03-06T10:15:50.340Z,1.60
2023-03-06T10:16:50.235Z,1.80
2023-03-06T10:17:50.339Z,1.90
2023-03-06T10:18:50.190Z,1.60
2023-03-06T10:19:50.192Z,1.50
2023-03-06T10:20:50.239Z,1.90
2023-03-06T10:21:50.244Z,1.80
2023-03-06T10:23:00.580Z,2.10
2023-03-06T10:23:50.179Z,1.70
2023-03-06T10:24:50.184Z,2.30
2023-03-06T10:25:50.127Z,2.10
2023-03-06T10:26:50.313Z,1.70
2023-03-06T10:27:50.102Z,2.60
2023-03-06T10:28:50.204Z,2.50
2023-03-06T10:30:01.732Z,2.90
2023-03-06T10:30:50.091Z,2.10
2023-03-06T10:31:50.137Z,2.20
2023-03-06T10:32:50.170Z,1.70
2023-03-06T10:33:50.120Z,1.60
2023-03-06T10:34:50.024Z,2.10
2023-03-06T10:35:50.052Z,2.40
2023-03-06T10:36:50.004Z,1.60
2023-03-06T10:37:50.051Z,1.90
2023-03-06T10:38:49.978Z,1.50
2023-03-06T10:39:49.985Z,1.60
2023-03-06T10:40:49.918Z,1.20
2023-03-06T10:41:49.949Z,1.30
2023-03-06T10:43:01.619Z,1.30
2023-03-06T10:43:49.927Z,1.30
2023-03-06T10:44:49.948Z,2.00
2023-03-06T10:45:49.941Z,1.70
2023-03-06T10:46:49.943Z,1.50
2023-03-06T10:47:49.850Z,1.40
2023-03-06T10:48:49.885Z,1.10
2023-03-06T10:49:49.814Z,1.10
2023-03-06T10:50:49.794Z,1.10
2023-03-06T10:51:49.796Z,1.00
2023-03-06T10:52:49.768Z,1.10
2023-03-06T10:53:49.774Z,1.20
2023-03-06T10:54:49.786Z,1.20
2023-03-06T10:55:49.736Z,1.40
2023-03-06T10:56:49.754Z,1.10
2023-03-06T10:57:49.705Z,1.10
2023-03-06T10:58:49.710Z,0.90
2023-03-06T10:59:49.687Z,0.90
2023-03-06T11:00:49.735Z,1.00
2023-03-06T11:01:49.714Z,1.10
2023-03-06T11:02:49.664Z,1.20
2023-03-06T11:03:49.662Z,1.60
2023-03-06T11:04:49.692Z,1.20
2023-03-06T11:05:49.626Z,1.40
2023-03-06T11:06:49.640Z,1.40
2023-03-06T11:07:49.592Z,1.60
2023-03-06T11:08:49.558Z,1.30
2023-03-06T11:09:49.551Z,1.40
2023-03-06T11:10:49.595Z,1.80
2023-03-06T11:11:49.516Z,1.30
2023-03-06T11:12:49.538Z,1.30
2023-03-06T11:13:49.507Z,1.50
2023-03-06T11:14:49.498Z,0.90
2023-03-06T11:15:49.501Z,1.40
2023-03-06T11:16:49.527Z,1.40
2023-03-06T11:17:49.452Z,1.10
2023-03-06T11:18:49.512Z,0.80
2023-03-06T11:19:49.458Z,0.80
2023-03-06T11:20:52.438Z,1.00
2023-03-06T11:21:49.465Z,0.70
2023-03-06T11:22:49.409Z,0.90
2023-03-06T11:23:49.363Z,0.90
2023-03-06T11:24:49.348Z,0.90
2023-03-06T11:25:49.346Z,0.80
2023-03-06T11:26:50.979Z,0.90
2023-03-06T11:27:49.329Z,0.90
2023-03-06T11:28:49.352Z,1.20
2023-03-06T11:29:49.281Z,0.80
2023-03-06T11:30:49.288Z,0.80
2023-03-06T11:31:49.318Z,0.90
2023-03-06T11:32:49.262Z,1.00
2023-03-06T11:33:49.264Z,1.80
2023-03-06T11:34:50.524Z,1.50
2023-03-06T11:35:49.303Z,1.80
2023-03-06T11:36:49.237Z,1.60
2023-03-06T11:37:49.184Z,1.00
2023-03-06T11:38:49.183Z,1.60
2023-03-06T11:39:49.203Z,1.20
2023-03-06T11:40:49.135Z,1.80
2023-03-06T11:41:49.127Z,1.10
2023-03-06T11:42:49.165Z,0.80
2023-03-06T11:43:49.113Z,0.80
2023-03-06T11:44:49.078Z,0.70
2023-03-06T11:45:49.090Z,0.60
2023-03-06T11:46:49.092Z,0.80
2023-03-06T11:47:49.120Z,0.80
2023-03-06T11:48:49.071Z,0.80
2023-03-06T11:49:49.064Z,0.70
2023-03-06T11:50:49.005Z,1.10
2023-03-06T11:51:49.044Z,0.80
2023-03-06T11:52:48.995Z,0.70
2023-03-06T11:53:48.998Z,0.90
2023-03-06T11:54:48.955Z,1.00
2023-03-06T11:55:48.941Z,0.80
2023-03-06T11:56:48.976Z,0.90
2023-03-06T11:57:48.935Z,1.00
2023-03-06T11:58:48.902Z,0.80
2023-03-06T11:59:48.897Z,1.00
2023-03-06T12:00:48.932Z,0.70
2023-03-06T12:01:48.892Z,0.80
2023-03-06T12:02:48.851Z,1.30
2023-03-06T12:03:48.912Z,0.80
2023-03-06T12:04:48.853Z,1.00
2023-03-06T12:05:48.871Z,0.90
2023-03-06T12:06:48.809Z,0.60
2023-03-06T12:07:48.809Z,0.80
2023-03-06T12:08:48.770Z,0.40
2023-03-06T12:09:48.784Z,0.70
2023-03-06T12:10:51.732Z,0.50
2023-03-06T12:11:48.738Z,0.40
2023-03-06T12:12:48.733Z,0.50
2023-03-06T12:13:48.723Z,0.50
2023-03-06T12:14:48.710Z,0.60
2023-03-06T12:15:48.751Z,0.50
2023-03-06T12:16:48.693Z,0.60
2023-03-06T12:17:48.705Z,0.40
2023-03-06T12:18:48.660Z,0.70
2023-03-06T12:19:48.678Z,0.70
2023-03-06T12:20:48.699Z,0.70
2023-03-06T12:21:48.663Z,0.50
2023-03-06T12:22:57.927Z,0.60
2023-03-06T12:23:48.667Z,0.90
2023-03-06T12:24:48.605Z,0.80
2023-03-06T12:25:48.583Z,0.70
2023-03-06T12:26:48.591Z,0.90
2023-03-06T12:27:48.618Z,0.80
2023-03-06T12:28:48.519Z,0.80
2023-03-06T12:29:48.508Z,0.60
2023-03-06T12:30:48.521Z,1.00
2023-03-06T12:31:48.583Z,0.80
2023-03-06T12:32:48.548Z,0.60
2023-03-06T12:33:48.451Z,0.70
2023-03-06T12:34:48.463Z,0.80
2023-03-06T12:35:48.470Z,0.50
2023-03-06T12:36:48.466Z,0.90
2023-03-06T12:37:48.416Z,0.90
2023-03-06T12:38:48.413Z,0.70
2023-03-06T12:39:48.474Z,0.60
2023-03-06T12:40:48.428Z,0.60
2023-03-06T12:41:48.387Z,0.60
2023-03-06T12:42:48.384Z,0.60
2023-03-06T12:43:48.352Z,0.90
2023-03-06T12:44:48.327Z,0.70
2023-03-06T12:45:48.321Z,0.50
2023-03-06T12:46:48.323Z,0.80
2023-03-06T12:47:48.313Z,0.90
2023-03-06T12:48:48.275Z,0.60
2023-03-06T12:49:48.550Z,0.90
2023-03-06T12:50:48.335Z,0.70
2023-03-06T12:51:48.263Z,0.70
2023-03-06T12:52:48.285Z,0.90
2023-03-06T12:53:48.280Z,0.70
2023-03-06T12:54:48.219Z,0.70
2023-03-06T12:55:48.220Z,0.80
2023-03-06T12:56:48.149Z,0.80
2023-03-06T12:57:48.168Z,0.80
2023-03-06T12:58:48.158Z,0.80
2023-03-06T12:59:48.216Z,0.80
2023-03-06T13:00:52.575Z,0.60
2023-03-06T13:01:48.164Z,0.70
2023-03-06T13:02:48.183Z,0.60
2023-03-06T13:03:48.166Z,0.70
2023-03-06T13:04:48.080Z,0.60
2023-03-06T13:05:48.058Z,1.20
2023-03-06T13:06:50.902Z,0.70
2023-03-06T13:07:48.096Z,0.70
2023-03-06T13:08:48.019Z,0.80
2023-03-06T13:09:47.994Z,0.90
2023-03-06T13:10:48.055Z,0.80
2023-03-06T13:11:47.997Z,1.10
2023-03-06T13:12:48.143Z,0.70
2023-03-06T13:13:47.968Z,0.60
2023-03-06T13:14:54.211Z,0.80
2023-03-06T13:15:47.936Z,0.80
2023-03-06T13:16:47.931Z,0.60